Time;durP1;ratioP1;P1;durP2;ratioP2;P2;SDS_P1;SDS_P2;PMS_P1;PMS_P2;Temp;Humidity;BMP_temperature;BMP_pressure;BME280_temperature;BME280_humidity;BME280_pressure;Samples;Min_cycle;Max_cycle;Signal;HPM_P1;HPM_P2
2022/01/30 00:01:31;;;;;;;15.85;3.55;;;;;;;5.98;69.04;100406.25;4996071;28;20565;-47
2022/01/30 00:03:56;;;;;;;17.73;2.70;;;;;;;5.98;68.41;100397.47;4995981;28;20096;-48
2022/01/30 00:06:23;;;;;;;13.30;2.17;;;;;;;5.92;68.01;100393.03;4996240;28;20057;-47
2022/01/30 00:08:49;;;;;;;13.30;3.13;;;;;;;5.96;67.98;100394.22;4996234;28;20428;-47
2022/01/30 00:11:16;;;;;;;16.90;2.72;;;;;;;5.97;67.83;100380.69;4995865;28;20042;-47
2022/01/30 00:13:41;;;;;;;11.63;2.50;;;;;;;5.94;67.82;100391.00;4997831;28;20385;-48
2022/01/30 00:16:10;;;;;;;8.43;2.53;;;;;;;5.94;67.28;100367.88;4994526;28;20040;-47
2022/01/30 00:23:42;;;;;;;14.40;2.95;;;;;;;5.99;67.44;100369.84;4999956;28;20660;-47
2022/01/30 00:26:08;;;;;;;19.52;4.10;;;;;;;6.01;67.29;100373.06;4996480;28;20717;-47
2022/01/30 00:28:34;;;;;;;25.45;3.40;;;;;;;5.98;66.98;100370.88;5000539;28;20030;-49
2022/01/30 00:31:00;;;;;;;19.55;2.92;;;;;;;6.05;67.59;100395.50;4995430;28;20033;-48
2022/01/30 00:33:26;;;;;;;12.90;2.95;;;;;;;6.05;67.75;100384.88;4999754;28;20057;-50
2022/01/30 00:35:51;;;;;;;14.98;4.03;;;;;;;6.09;67.81;100398.53;4995396;28;20022;-48
2022/01/30 00:38:19;;;;;;;13.90;2.92;;;;;;;5.95;69.21;100401.38;4998648;28;20180;-49
2022/01/30 00:40:46;;;;;;;17.23;2.75;;;;;;;5.85;69.75;100406.41;4995793;28;20076;-51
2022/01/30 00:43:12;;;;;;;16.13;3.13;;;;;;;5.81;69.67;100396.44;4998625;28;20032;-47
2022/01/30 00:45:38;;;;;;;16.95;3.00;;;;;;;5.74;70.25;100383.22;4992924;28;20026;-51
2022/01/30 00:48:04;;;;;;;17.67;2.83;;;;;;;5.77;69.83;100388.13;4996237;28;20101;-47
2022/01/30 00:50:30;;;;;;;21.60;3.17;;;;;;;5.76;69.98;100363.38;4994168;28;20091;-48
2022/01/30 00:52:56;;;;;;;14.60;2.45;;;;;;;5.78;69.61;100343.72;4996746;28;20040;-47
2022/01/30 00:55:27;;;;;;;14.68;3.40;;;;;;;5.81;68.95;100353.91;4995293;28;20065;-50
2022/01/30 00:57:54;;;;;;;13.57;2.88;;;;;;;5.89;68.43;100358.88;4997486;28;20433;-48
2022/01/30 01:00:21;;;;;;;19.33;3.58;;;;;;;5.92;68.37;100353.16;4996129;28;20056;-47
2022/01/30 01:02:47;;;;;;;14.80;2.85;;;;;;;5.90;68.13;100364.00;4995461;28;20468;-50
2022/01/30 01:05:14;;;;;;;20.38;3.08;;;;;;;5.95;68.71;100361.50;4993969;28;20026;-50
2022/01/30 01:07:44;;;;;;;15.80;2.97;;;;;;;5.91;68.97;100402.84;4996954;28;20169;-50
2022/01/30 01:25:51;;;;;;;12.18;2.28;;;;;;;5.66;71.33;100395.00;5002035;28;20026;-49
2022/01/30 01:28:17;;;;;;;15.10;2.45;;;;;;;5.70;70.63;100371.41;5002159;28;20034;-47
2022/01/30 01:30:43;;;;;;;12.35;2.47;;;;;;;5.67;70.50;100393.94;5002908;28;20471;-47
2022/01/30 01:33:08;;;;;;;16.98;2.47;;;;;;;5.71;70.38;100394.31;5002650;28;20096;-47
2022/01/30 01:35:35;;;;;;;22.77;2.88;;;;;;;5.69;69.90;100389.22;5004032;28;20032;-47
2022/01/30 01:38:00;;;;;;;17.90;3.45;;;;;;;5.66;70.69;100373.72;5002760;28;20018;-47
2022/01/30 01:40:26;;;;;;;15.18;3.05;;;;;;;5.63;70.86;100382.16;5004122;28;20291;-47
2022/01/30 01:42:52;;;;;;;13.85;2.55;;;;;;;5.61;70.67;100386.06;5003803;28;20105;-48
2022/01/30 01:45:23;;;;;;;18.77;3.75;;;;;;;5.59;71.22;100394.28;5002912;28;20033;-48
2022/01/30 01:47:49;;;;;;;15.30;2.88;;;;;;;5.54;71.96;100404.75;5004144;28;20606;-47
2022/01/30 01:50:38;;;;;;;16.75;3.35;;;;;;;5.59;72.20;100415.53;5003184;28;20247;-47
2022/01/30 01:53:02;;;;;;;15.43;2.80;;;;;;;5.56;72.86;100394.69;5001646;28;20046;-47
2022/01/30 01:55:28;;;;;;;16.70;3.80;;;;;;;5.48;73.40;100371.09;5003693;28;20026;-47
2022/01/30 01:57:53;;;;;;;14.93;3.17;;;;;;;5.46;73.58;100363.34;5003102;28;20237;-48
2022/01/30 02:00:18;;;;;;;15.93;3.22;;;;;;;5.43;73.12;100345.22;5003237;28;20030;-47
2022/01/30 02:02:44;;;;;;;13.10;2.67;;;;;;;5.44;73.17;100341.50;5004057;28;20178;-49
2022/01/30 02:05:10;;;;;;;18.05;3.00;;;;;;;5.43;72.88;100336.44;5005673;28;20051;-50
2022/01/30 02:10:34;;;;;;;17.30;2.83;;;;;;;5.47;71.36;100321.66;5006235;28;20040;-47
2022/01/30 02:13:16;;;;;;;12.48;2.83;;;;;;;5.53;70.65;100309.31;5003299;28;20038;-47
2022/01/30 02:24:07;;;;;;;13.17;2.63;;;;;;;5.54;70.56;100318.91;5005807;28;20096;-49
2022/01/30 02:26:40;;;;;;;15.07;2.80;;;;;;;5.48;70.68;100333.91;5006022;28;20636;-47
2022/01/30 02:29:06;;;;;;;13.27;3.03;;;;;;;5.46;71.12;100335.97;5003041;28;20120;-47
2022/01/30 02:31:35;;;;;;;19.83;2.97;;;;;;;5.40;71.47;100326.25;5006362;28;20112;-48
2022/01/30 02:34:00;;;;;;;11.05;2.13;;;;;;;5.39;71.22;100325.44;5005413;28;20079;-47
2022/01/30 02:36:26;;;;;;;13.57;2.25;;;;;;;5.43;70.43;100309.84;5006203;28;20488;-49
2022/01/30 02:38:56;;;;;;;11.25;2.45;;;;;;;5.42;69.24;100318.88;5005302;28;20411;-47
2022/01/30 02:41:22;;;;;;;14.95;2.78;;;;;;;5.47;68.20;100311.84;5006475;28;20470;-47
2022/01/30 02:43:58;;;;;;;12.00;2.30;;;;;;;5.55;68.34;100331.16;5005387;28;20116;-48
2022/01/30 02:46:30;;;;;;;11.23;2.53;;;;;;;5.58;67.82;100304.94;5005134;28;20049;-47
2022/01/30 02:48:59;;;;;;;13.15;2.10;;;;;;;5.57;67.69;100311.31;5005402;28;20124;-47
2022/01/30 02:51:33;;;;;;;19.13;2.75;;;;;;;5.61;67.24;100293.06;4992787;28;20025;-49
2022/01/30 02:54:06;;;;;;;13.90;3.60;;;;;;;5.61;67.26;100301.84;5004785;28;20313;-47
2022/01/30 02:56:31;;;;;;;19.63;2.55;;;;;;;5.60;67.85;100312.69;5005441;28;20792;-47
2022/01/30 02:58:57;;;;;;;11.38;1.90;;;;;;;5.63;68.80;100296.28;5003811;28;20030;-48
2022/01/30 03:01:22;;;;;;;10.48;2.55;;;;;;;5.57;69.32;100289.22;5005270;28;20540;-50
2022/01/30 03:03:48;;;;;;;12.10;2.22;;;;;;;5.49;69.28;100290.34;5005371;28;20025;-47
2022/01/30 03:06:13;;;;;;;14.60;2.72;;;;;;;5.53;69.45;100278.22;5004013;28;20030;-48
2022/01/30 03:08:38;;;;;;;16.33;2.15;;;;;;;5.46;68.90;100269.53;5006811;28;20030;-48
2022/01/30 03:11:04;;;;;;;11.48;2.78;;;;;;;5.50;69.10;100272.56;5003277;28;20026;-47
2022/01/30 03:13:30;;;;;;;11.95;2.22;;;;;;;5.50;68.71;100284.00;5006216;28;20034;-47
2022/01/30 03:16:03;;;;;;;15.93;3.50;;;;;;;5.51;68.65;100277.66;5003686;28;20044;-47
2022/01/30 03:18:28;;;;;;;12.55;2.17;;;;;;;5.53;68.76;100278.22;5003492;28;20048;-47
2022/01/30 03:20:54;;;;;;;10.80;2.55;;;;;;;5.57;68.32;100290.03;5003067;28;20022;-48
2022/01/30 03:23:20;;;;;;;14.95;2.10;;;;;;;5.53;67.99;100282.72;5004332;28;20042;-48
2022/01/30 03:25:45;;;;;;;17.85;3.22;;;;;;;5.56;68.19;100299.03;5005232;28;20093;-48
2022/01/30 03:28:11;;;;;;;16.02;2.75;;;;;;;5.57;67.97;100284.72;5004124;28;20431;-49
2022/01/30 03:30:38;;;;;;;10.93;3.10;;;;;;;5.59;67.36;100265.91;5004792;28;20197;-47
2022/01/30 03:33:03;;;;;;;14.82;3.05;;;;;;;5.64;67.41;100287.28;5003081;28;20018;-51
2022/01/30 03:35:29;;;;;;;12.55;2.55;;;;;;;5.64;66.39;100295.25;5004113;28;20139;-47
2022/01/30 03:37:55;;;;;;;16.85;2.33;;;;;;;5.68;66.75;100262.69;5003067;28;20014;-49
2022/01/30 03:40:21;;;;;;;13.07;2.30;;;;;;;5.64;66.41;100282.78;5004521;28;20032;-48
2022/01/30 03:42:46;;;;;;;16.42;2.58;;;;;;;5.70;65.87;100279.19;5004327;28;20021;-49
2022/01/30 03:45:12;;;;;;;20.45;4.15;;;;;;;5.69;66.01;100288.22;5003229;28;20041;-47
2022/01/30 03:47:38;;;;;;;14.75;2.80;;;;;;;5.73;65.81;100276.09;5004814;28;20057;-47
2022/01/30 03:50:04;;;;;;;12.88;2.35;;;;;;;5.79;65.77;100276.22;5003061;28;20087;-48
2022/01/30 03:52:30;;;;;;;15.65;2.67;;;;;;;5.78;65.75;100288.72;5004228;28;20034;-48
2022/01/30 03:54:55;;;;;;;14.48;2.17;;;;;;;5.79;65.63;100284.22;5001027;28;20091;-47
2022/01/30 03:57:21;;;;;;;9.90;2.42;;;;;;;5.77;65.54;100289.75;5003625;28;20025;-49
2022/01/30 03:59:46;;;;;;;21.73;2.83;;;;;;;5.76;65.80;100269.53;5004581;28;20033;-47
2022/01/30 04:02:12;;;;;;;12.00;2.40;;;;;;;5.80;65.21;100261.91;5003489;28;20036;-48
2022/01/30 04:04:37;;;;;;;12.63;2.30;;;;;;;5.77;65.11;100271.16;5004925;28;20398;-48
2022/01/30 04:07:03;;;;;;;11.98;2.92;;;;;;;5.78;65.19;100248.84;5002821;28;20092;-47
2022/01/30 04:09:29;;;;;;;14.30;3.00;;;;;;;5.79;65.25;100244.34;5003097;28;20057;-49
2022/01/30 04:11:55;;;;;;;18.30;3.65;;;;;;;5.81;65.42;100255.53;5004095;28;20029;-47
2022/01/30 04:14:21;;;;;;;25.88;4.15;;;;;;;5.77;64.93;100241.91;5003356;28;20030;-48
2022/01/30 04:16:47;;;;;;;15.55;2.83;;;;;;;5.74;64.90;100252.97;5003613;28;20022;-49
2022/01/30 04:19:13;;;;;;;19.75;2.95;;;;;;;5.73;65.01;100252.16;5003280;28;20112;-47
2022/01/30 04:21:39;;;;;;;8.48;2.60;;;;;;;5.72;65.30;100261.19;5004324;28;20033;-48
2022/01/30 04:24:05;;;;;;;14.77;2.45;;;;;;;5.63;65.29;100235.97;5003199;28;20033;-47
2022/01/30 04:26:31;;;;;;;14.63;3.10;;;;;;;5.71;64.29;100237.47;5002878;28;20611;-47
2022/01/30 04:28:57;;;;;;;11.13;2.85;;;;;;;5.78;64.29;100254.16;5002477;28;20052;-48
2022/01/30 04:31:23;;;;;;;17.52;2.70;;;;;;;5.83;64.07;100264.09;5003397;28;20093;-50
2022/01/30 04:33:49;;;;;;;13.25;2.53;;;;;;;5.83;64.22;100261.44;5003984;28;20025;-49
2022/01/30 04:36:20;;;;;;;13.00;2.58;;;;;;;5.86;63.88;100258.31;5001468;28;20112;-47
2022/01/30 04:39:12;;;;;;;18.80;3.30;;;;;;;5.80;64.11;100246.75;5001393;28;20025;-47
2022/01/30 04:57:53;;;;;;;15.80;3.28;;;;;;;5.68;65.79;100198.06;4960847;28;20044;-47
2022/01/30 05:03:17;;;;;;;17.70;2.95;;;;;;;5.65;65.66;100206.50;5003165;28;20033;-47
2022/01/30 05:05:53;;;;;;;25.38;3.88;;;;;;;5.63;66.04;100220.03;5002981;28;20030;-48
2022/01/30 05:08:19;;;;;;;15.13;2.38;;;;;;;5.55;66.88;100225.66;5002435;28;20030;-48
2022/01/30 05:10:45;;;;;;;22.27;4.05;;;;;;;5.50;67.92;100267.25;5003178;28;20040;-48
2022/01/30 05:13:15;;;;;;;14.75;2.97;;;;;;;5.47;68.24;100268.50;5002339;28;20037;-51
2022/01/30 05:15:43;;;;;;;24.20;3.58;;;;;;;5.41;69.44;100285.38;5003265;28;20068;-47
2022/01/30 05:18:09;;;;;;;15.95;2.67;;;;;;;5.37;70.26;100289.47;5002583;28;20030;-47
2022/01/30 05:20:35;;;;;;;19.35;3.17;;;;;;;5.33;70.54;100291.78;5003503;28;20490;-48
2022/01/30 05:23:01;;;;;;;22.42;3.03;;;;;;;5.35;70.78;100272.97;5002951;28;20319;-48
2022/01/30 05:25:26;;;;;;;23.45;3.72;;;;;;;5.27;71.33;100279.41;5002135;28;20475;-47
2022/01/30 05:27:52;;;;;;;19.30;3.35;;;;;;;5.26;71.50;100271.66;4992857;28;20471;-50
2022/01/30 05:30:20;;;;;;;12.98;2.83;;;;;;;5.32;71.34;100278.72;5002719;28;20540;-48
2022/01/30 05:32:45;;;;;;;24.45;4.25;;;;;;;5.29;71.21;100292.47;5003662;28;20116;-47
2022/01/30 05:35:11;;;;;;;15.38;3.40;;;;;;;5.29;71.08;100308.41;5001306;28;20136;-47
2022/01/30 05:37:39;;;;;;;23.20;4.55;;;;;;;5.30;71.14;100284.28;5002868;28;20505;-48
2022/01/30 05:40:06;;;;;;;22.13;3.63;;;;;;;5.31;71.06;100280.56;5005591;28;20021;-47
2022/01/30 05:42:32;;;;;;;17.95;3.05;;;;;;;5.29;70.98;100308.41;5006616;28;20032;-49
2022/01/30 05:45:13;;;;;;;20.15;3.63;;;;;;;5.32;70.95;100299.97;5005035;28;20030;-51
2022/01/30 05:47:48;;;;;;;19.38;3.65;;;;;;;5.29;70.52;100303.09;5007384;28;20021;-49
2022/01/30 05:50:14;;;;;;;22.13;4.00;;;;;;;5.33;70.66;100309.56;5006191;28;20382;-49
2022/01/30 05:52:40;;;;;;;20.92;3.33;;;;;;;5.34;70.78;100306.69;5007195;28;20091;-48
2022/01/30 05:55:05;;;;;;;25.25;3.97;;;;;;;5.30;71.49;100315.34;5005142;28;20022;-47
2022/01/30 05:57:31;;;;;;;13.20;3.30;;;;;;;5.25;71.99;100316.00;5006710;28;20040;-49
2022/01/30 05:59:56;;;;;;;14.80;3.40;;;;;;;5.22;72.61;100307.69;5005133;28;20132;-49
2022/01/30 06:02:22;;;;;;;27.88;4.03;;;;;;;5.15;72.70;100313.88;5006745;28;20072;-48
2022/01/30 06:04:47;;;;;;;16.00;3.80;;;;;;;5.15;73.07;100339.63;5006030;28;20450;-49
2022/01/30 06:07:13;;;;;;;15.48;3.78;;;;;;;5.14;73.65;100345.97;5004752;28;20030;-47
2022/01/30 06:09:39;;;;;;;21.42;4.53;;;;;;;5.03;73.63;100346.72;5006782;28;20053;-50
2022/01/30 06:12:05;;;;;;;27.30;4.18;;;;;;;5.14;73.59;100345.97;5004993;28;20065;-47
2022/01/30 06:14:31;;;;;;;19.85;3.60;;;;;;;5.11;73.79;100347.22;5006176;28;20033;-48
2022/01/30 06:16:56;;;;;;;23.50;3.40;;;;;;;4.99;74.66;100362.25;5005005;28;20032;-52
2022/01/30 06:19:22;;;;;;;22.00;4.28;;;;;;;4.94;75.17;100356.00;5006295;28;20025;-47
2022/01/30 06:21:51;;;;;;;20.10;3.75;;;;;;;4.92;75.78;100371.34;5005144;28;20026;-46
2022/01/30 06:24:17;;;;;;;22.42;3.83;;;;;;;4.90;75.54;100371.56;5004739;28;20034;-47
2022/01/30 06:26:42;;;;;;;21.75;3.97;;;;;;;4.88;75.84;100373.63;5006494;28;20368;-49
2022/01/30 06:29:07;;;;;;;21.73;3.42;;;;;;;4.90;75.64;100376.06;5004884;28;20334;-48
2022/01/30 06:31:33;;;;;;;25.27;4.10;;;;;;;4.92;75.32;100381.94;5006157;28;20025;-50
2022/01/30 06:33:58;;;;;;;26.75;5.70;;;;;;;4.89;75.37;100380.56;5005382;28;20184;-47
2022/01/30 06:36:24;;;;;;;24.90;4.05;;;;;;;4.94;75.47;100407.25;5005510;28;20132;-47
2022/01/30 06:38:51;;;;;;;15.90;3.95;;;;;;;4.95;75.25;100416.03;5005510;28;20022;-49
2022/01/30 06:41:17;;;;;;;37.83;5.05;;;;;;;4.89;75.50;100412.41;5004961;28;20038;-49
2022/01/30 06:43:42;;;;;;;17.17;3.47;;;;;;;4.92;75.21;100382.75;5005396;28;20468;-49
2022/01/30 06:46:10;;;;;;;26.00;4.57;;;;;;;4.95;74.71;100408.88;5004989;28;20029;-49
2022/01/30 06:48:36;;;;;;;24.30;4.55;;;;;;;5.04;74.13;100407.56;5005354;28;20021;-50
2022/01/30 06:51:02;;;;;;;20.25;3.70;;;;;;;5.12;73.75;100415.22;5003163;28;20209;-48
2022/01/30 06:53:27;;;;;;;22.92;4.38;;;;;;;5.06;73.72;100425.94;5005414;28;20021;-50
2022/01/30 06:55:52;;;;;;;21.85;3.60;;;;;;;5.12;73.21;100441.78;5004680;28;20463;-49
2022/01/30 06:58:18;;;;;;;17.60;3.53;;;;;;;5.18;72.82;100449.91;4993658;28;20485;-49
2022/01/30 07:00:43;;;;;;;19.00;3.70;;;;;;;5.24;72.76;100454.34;5005651;28;20026;-50
2022/01/30 07:03:09;;;;;;;22.90;3.65;;;;;;;5.25;72.09;100455.97;5002704;28;20030;-52
2022/01/30 07:05:34;;;;;;;18.52;4.15;;;;;;;5.26;72.22;100465.56;5005696;28;20128;-50
2022/01/30 07:08:00;;;;;;;25.58;4.47;;;;;;;5.27;71.80;100461.88;5004878;28;20092;-50
2022/01/30 07:10:26;;;;;;;20.90;3.67;;;;;;;5.31;71.74;100479.00;5007918;28;20041;-49
2022/01/30 07:12:52;;;;;;;23.92;4.05;;;;;;;5.35;71.51;100483.63;5004244;28;20026;-47
2022/01/30 07:15:17;;;;;;;24.75;4.30;;;;;;;5.37;70.87;100454.19;5003073;28;20033;-48
2022/01/30 07:17:43;;;;;;;21.50;4.35;;;;;;;5.41;70.25;100481.97;5027635;22;20253;-47
2022/01/30 07:20:09;;;;;;;22.35;5.00;;;;;;;5.46;69.60;100468.81;5024127;28;20548;-47
2022/01/30 07:22:35;;;;;;;25.20;6.00;;;;;;;5.43;69.03;100494.00;5024347;28;20075;-48
2022/01/30 07:25:02;;;;;;;26.80;3.97;;;;;;;5.56;68.46;100476.25;5024190;28;20522;-47
2022/01/30 07:27:28;;;;;;;17.50;3.35;;;;;;;5.60;68.43;100478.28;5020843;28;20420;-49
2022/01/30 07:29:54;;;;;;;22.65;4.90;;;;;;;5.62;67.99;100500.13;5021634;28;20041;-47
2022/01/30 07:32:20;;;;;;;22.35;4.40;;;;;;;5.64;67.24;100497.25;5020233;28;20030;-47
2022/01/30 07:34:49;;;;;;;25.77;4.22;;;;;;;5.69;67.56;100487.56;5021701;28;20025;-47
2022/01/30 07:37:15;;;;;;;29.50;6.10;;;;;;;5.70;66.93;100507.00;5020356;28;20036;-48
2022/01/30 07:39:42;;;;;;;23.42;4.00;;;;;;;5.73;66.57;100509.19;5021173;28;20026;-48
2022/01/30 07:42:07;;;;;;;21.17;4.43;;;;;;;5.79;66.39;100520.81;5020510;28;20398;-50
2022/01/30 07:44:33;;;;;;;20.23;3.92;;;;;;;5.83;65.92;100537.94;5019053;28;20029;-47
2022/01/30 07:46:58;;;;;;;17.88;3.70;;;;;;;5.87;65.29;100555.88;5021054;28;20083;-47
2022/01/30 07:49:24;;;;;;;19.30;3.67;;;;;;;5.86;65.05;100566.75;5018258;28;20032;-49
2022/01/30 07:51:49;;;;;;;25.02;4.78;;;;;;;5.90;64.88;100536.84;5036225;28;20025;-47
2022/01/30 07:54:15;;;;;;;26.67;5.47;;;;;;;5.94;64.91;100545.22;5020419;28;20032;-47
2022/01/30 07:56:42;;;;;;;23.42;4.93;;;;;;;5.96;64.76;100562.56;5014428;28;20030;-47
2022/01/30 07:59:07;;;;;;;20.58;4.72;;;;;;;5.98;64.95;100547.19;5020581;28;20078;-49
2022/01/30 08:01:32;;;;;;;20.88;3.63;;;;;;;5.99;64.82;100580.75;5018161;28;20100;-47
2022/01/30 08:04:00;;;;;;;22.77;4.70;;;;;;;5.98;64.89;100571.13;5023546;28;20059;-48
2022/01/30 08:06:26;;;;;;;23.27;4.03;;;;;;;5.98;63.99;100595.06;5023222;28;20029;-47
2022/01/30 08:08:51;;;;;;;17.38;4.55;;;;;;;5.99;63.44;100580.75;5023513;28;20035;-48
2022/01/30 08:11:17;;;;;;;20.13;3.30;;;;;;;6.03;63.73;100586.41;5024706;28;20037;-47
2022/01/30 08:13:42;;;;;;;19.42;3.72;;;;;;;6.04;63.64;100594.19;5018794;28;20021;-48
2022/01/30 08:16:08;;;;;;;22.55;4.43;;;;;;;6.02;63.84;100584.78;5019900;28;20134;-47
2022/01/30 08:18:37;;;;;;;23.50;4.10;;;;;;;6.07;63.40;100606.22;5021162;28;20026;-47
2022/01/30 08:21:05;;;;;;;23.85;4.13;;;;;;;6.12;63.53;100569.16;5023052;28;20323;-48
2022/01/30 08:23:34;;;;;;;15.68;3.97;;;;;;;6.12;63.41;100617.03;5022692;28;20028;-47
2022/01/30 08:26:00;;;;;;;24.77;4.32;;;;;;;6.12;63.61;100613.56;5021806;28;20036;-48
2022/01/30 08:28:26;;;;;;;18.23;3.45;;;;;;;6.14;63.53;100620.28;5017348;28;20052;-48
2022/01/30 08:30:51;;;;;;;25.20;4.65;;;;;;;6.13;63.54;100644.44;5019935;28;20033;-48
2022/01/30 08:33:17;;;;;;;40.58;4.70;;;;;;;6.16;62.94;100646.66;5020520;28;20057;-49
2022/01/30 08:35:44;;;;;;;33.03;5.28;;;;;;;6.15;62.64;100632.53;5022122;28;20033;-47
2022/01/30 08:38:11;;;;;;;23.88;4.43;;;;;;;6.18;62.77;100631.28;5024121;28;20487;-49
2022/01/30 08:40:36;;;;;;;23.98;4.28;;;;;;;6.22;62.90;100649.22;5022278;28;20378;-48
2022/01/30 08:43:03;;;;;;;23.08;4.90;;;;;;;6.23;62.99;100644.72;5021943;28;20112;-50
2022/01/30 08:45:29;;;;;;;18.27;3.70;;;;;;;6.32;62.27;100654.84;5020644;28;20421;-49
2022/01/30 08:47:54;;;;;;;21.67;4.07;;;;;;;6.28;62.30;100666.13;5011107;28;20029;-48
2022/01/30 08:50:21;;;;;;;20.17;4.18;;;;;;;6.29;62.65;100697.88;5020073;28;20546;-48
2022/01/30 08:52:48;;;;;;;28.38;5.43;;;;;;;6.26;62.62;100666.38;5021923;28;20108;-49
2022/01/30 08:55:15;;;;;;;17.35;3.92;;;;;;;6.24;62.63;100684.41;5017355;28;20501;-47
2022/01/30 08:57:40;;;;;;;23.30;4.30;;;;;;;6.27;62.28;100678.63;5021099;28;20720;-48
2022/01/30 09:00:12;;;;;;;32.65;4.45;;;;;;;6.27;62.17;100691.94;5022398;28;20086;-48
2022/01/30 09:02:38;;;;;;;31.50;5.45;;;;;;;6.34;62.22;100705.19;5018196;28;20021;-48
2022/01/30 09:05:06;;;;;;;31.92;5.70;;;;;;;6.40;61.81;100695.50;5019666;28;20425;-46
2022/01/30 09:07:32;;;;;;;24.02;4.50;;;;;;;6.48;61.60;100695.22;5019221;28;20096;-48
2022/01/30 09:09:57;;;;;;;28.15;4.35;;;;;;;6.49;61.80;100718.13;5019660;28;20041;-47
2022/01/30 09:12:24;;;;;;;18.42;4.15;;;;;;;6.48;61.50;100733.28;5019908;28;20041;-47
2022/01/30 09:14:50;;;;;;;20.63;4.82;;;;;;;6.47;61.34;100734.34;5025060;28;20479;-47
2022/01/30 09:17:16;;;;;;;30.65;4.18;;;;;;;6.52;61.38;100770.94;5026824;28;20030;-47
2022/01/30 09:19:44;;;;;;;16.58;3.97;;;;;;;6.57;61.17;100776.41;5025228;28;20071;-47
2022/01/30 09:22:11;;;;;;;23.98;4.97;;;;;;;6.67;61.25;100774.03;5024972;28;20550;-48
2022/01/30 09:24:37;;;;;;;18.40;3.95;;;;;;;6.66;61.03;100767.91;5025788;28;20462;-47
2022/01/30 09:27:04;;;;;;;27.25;4.22;;;;;;;6.60;61.29;100790.06;5025961;28;20079;-47
2022/01/30 09:29:30;;;;;;;29.85;6.72;;;;;;;6.58;60.79;100804.63;5025733;28;20045;-47
2022/01/30 09:31:57;;;;;;;18.75;4.05;;;;;;;6.57;60.76;100790.50;5027085;28;20103;-48
2022/01/30 09:34:22;;;;;;;35.40;5.47;;;;;;;6.55;60.66;100803.25;5026269;28;20199;-49
2022/01/30 09:36:48;;;;;;;28.10;5.68;;;;;;;6.57;60.97;100805.69;5025104;28;20025;-48
2022/01/30 09:39:14;;;;;;;19.02;4.40;;;;;;;6.66;60.52;100821.16;5027165;28;20029;-47
2022/01/30 09:41:42;;;;;;;22.15;4.70;;;;;;;6.70;60.24;100816.19;5025396;28;20128;-47
2022/01/30 09:44:10;;;;;;;29.70;5.70;;;;;;;6.65;60.18;100842.69;5026123;28;20037;-47
2022/01/30 09:46:41;;;;;;;22.70;4.13;;;;;;;6.67;60.07;100832.63;5026046;28;20037;-46
2022/01/30 09:49:08;;;;;;;16.63;4.55;;;;;;;6.70;60.58;100832.19;5026482;28;20030;-47
2022/01/30 09:51:34;;;;;;;24.42;5.13;;;;;;;6.70;60.50;100845.50;5025925;28;20036;-47
2022/01/30 09:54:04;;;;;;;19.48;4.43;;;;;;;6.75;60.38;100845.63;5025246;28;20691;-47
2022/01/30 09:56:29;;;;;;;26.63;4.65;;;;;;;6.87;60.36;100875.03;5014966;28;20423;-46
2022/01/30 09:58:55;;;;;;;23.20;5.07;;;;;;;6.89;59.92;100867.63;5024860;28;20039;-47
2022/01/30 10:01:20;;;;;;;29.42;4.20;;;;;;;6.93;60.31;100858.97;5027108;28;20415;-46
2022/01/30 10:03:49;;;;;;;21.80;4.97;;;;;;;6.87;60.05;100873.19;5025506;28;20033;-47
2022/01/30 10:06:20;;;;;;;18.80;3.67;;;;;;;6.80;60.21;100895.56;5024267;28;20068;-48
2022/01/30 10:08:49;;;;;;;24.35;4.50;;;;;;;6.85;60.07;100893.91;5023881;28;20033;-48
2022/01/30 10:11:41;;;;;;;29.42;4.55;;;;;;;6.87;60.48;100886.50;5026380;28;20021;-48
2022/01/30 10:14:14;;;;;;;26.65;5.20;;;;;;;6.85;60.17;100909.88;5022678;28;20056;-47
2022/01/30 10:16:48;;;;;;;25.88;4.50;;;;;;;6.83;59.72;100919.94;5022630;28;20025;-48
2022/01/30 10:19:19;;;;;;;21.38;4.05;;;;;;;6.93;60.09;100925.56;5023054;28;20025;-47
2022/01/30 10:21:49;;;;;;;23.27;4.25;;;;;;;6.93;60.24;100936.22;5023423;28;20033;-47
2022/01/30 10:24:42;;;;;;;20.92;5.78;;;;;;;6.94;60.07;100935.19;5024873;28;20066;-48
2022/01/30 10:27:25;;;;;;;19.20;4.55;;;;;;;6.94;60.22;100918.38;5020404;28;20037;-47
2022/01/30 10:30:07;;;;;;;28.92;4.75;;;;;;;6.97;60.25;100945.38;5022881;28;20075;-48
2022/01/30 10:32:33;;;;;;;25.10;4.93;;;;;;;6.99;60.21;100961.16;5019101;28;20025;-47
2022/01/30 10:35:07;;;;;;;24.88;4.90;;;;;;;6.98;60.55;100952.34;5022759;28;20040;-47
2022/01/30 10:37:36;;;;;;;32.80;5.60;;;;;;;6.96;60.49;100946.44;5019688;28;20053;-48
2022/01/30 10:40:06;;;;;;;19.38;4.13;;;;;;;6.94;60.24;100959.16;5022123;28;20567;-47
2022/01/30 10:42:51;;;;;;;28.20;5.03;;;;;;;6.96;59.94;100962.41;5016912;28;20135;-47
2022/01/30 10:45:22;;;;;;;22.33;5.22;;;;;;;6.92;60.25;100961.22;5021567;28;20108;-48
2022/01/30 10:47:48;;;;;;;24.15;4.47;;;;;;;6.93;60.37;100981.50;5017291;28;20044;-47
2022/01/30 10:50:20;;;;;;;27.00;4.95;;;;;;;6.89;60.39;100974.16;5022621;28;20048;-47
2022/01/30 10:52:58;;;;;;;28.50;5.25;;;;;;;6.84;60.41;100982.81;5012519;28;20656;-47
2022/01/30 10:55:41;;;;;;;22.45;5.03;;;;;;;6.92;60.25;100995.03;5020474;28;20033;-47
2022/01/30 10:58:11;;;;;;;23.15;4.85;;;;;;;6.88;59.91;100981.34;5018683;28;20136;-47
2022/01/30 11:00:43;;;;;;;19.77;4.55;;;;;;;6.85;60.11;101007.59;5021818;28;20033;-47
2022/01/30 11:03:10;;;;;;;24.75;5.32;;;;;;;6.88;60.50;100997.31;5021167;28;20025;-48
2022/01/30 11:05:58;;;;;;;23.95;5.50;;;;;;;6.89;60.29;101001.63;5020174;28;20410;-48
2022/01/30 11:08:25;;;;;;;23.73;4.28;;;;;;;6.92;60.09;101000.38;5018362;28;20022;-47
2022/01/30 11:19:12;;;;;;;;;;;;;;;6.80;59.88;101048.19;5022400;28;20028;-47
2022/01/30 11:21:39;;;;;;;25.33;4.95;;;;;;;6.97;59.48;101033.31;5017121;28;19913;-47
2022/01/30 11:24:07;;;;;;;27.13;4.70;;;;;;;7.21;59.35;101034.34;5020777;28;20518;-48
2022/01/30 11:26:33;;;;;;;20.63;5.13;;;;;;;7.42;59.60;101046.44;5020493;28;20028;-48
2022/01/30 11:28:59;;;;;;;24.50;4.03;;;;;;;7.51;58.77;101033.63;5020424;28;20041;-48
2022/01/30 11:31:26;;;;;;;22.25;5.28;;;;;;;7.61;58.25;101035.81;5021333;28;20036;-48
2022/01/30 11:33:52;;;;;;;23.30;4.05;;;;;;;7.75;58.50;101053.31;5018807;28;20029;-48
2022/01/30 11:36:21;;;;;;;27.00;5.60;;;;;;;7.86;58.02;101048.03;5020462;28;20025;-48
2022/01/30 11:38:47;;;;;;;20.45;5.07;;;;;;;7.90;57.89;101067.09;5015693;28;20026;-48
2022/01/30 11:41:16;;;;;;;24.17;5.38;;;;;;;7.89;56.92;101055.59;5021417;28;20391;-47
2022/01/30 11:44:17;;;;;;;25.50;4.43;;;;;;;8.11;56.29;101063.16;5020459;28;20322;-49
2022/01/30 11:46:43;;;;;;;29.30;5.60;;;;;;;8.28;56.51;101076.72;5017686;28;20540;-48
2022/01/30 11:49:15;;;;;;;21.38;4.78;;;;;;;8.32;56.42;101080.56;5020180;28;20641;-48
2022/01/30 11:51:52;;;;;;;28.67;5.13;;;;;;;8.33;55.71;101088.34;5018736;28;20532;-51
2022/01/30 11:54:38;;;;;;;18.92;4.35;;;;;;;8.36;55.16;101095.94;5019937;28;20105;-49
2022/01/30 11:57:24;;;;;;;21.42;5.28;;;;;;;8.50;56.05;101109.94;5015820;28;20017;-48
2022/01/30 11:59:54;;;;;;;18.27;4.15;;;;;;;8.54;55.15;101111.09;5017895;28;20095;-48
2022/01/30 12:02:24;;;;;;;28.63;5.22;;;;;;;8.54;54.80;101110.28;5021283;28;20136;-51
2022/01/30 12:05:08;;;;;;;34.10;4.97;;;;;;;8.66;55.54;101111.97;5012327;28;20535;-49
2022/01/30 12:07:47;;;;;;;28.50;5.28;;;;;;;8.73;54.51;101109.19;5016596;28;20029;-48
2022/01/30 12:12:52;;;;;;;28.08;3.97;;;;;;;8.62;53.91;101124.16;5019026;28;20120;-48
2022/01/30 12:15:36;;;;;;;24.15;5.32;;;;;;;8.59;53.83;101113.91;5021988;28;20021;-48
2022/01/30 12:18:12;;;;;;;39.95;5.00;;;;;;;8.76;54.16;101114.09;5012021;28;20391;-48
2022/01/30 12:20:56;;;;;;;29.67;5.80;;;;;;;8.79;53.28;101114.44;5013152;28;20858;-50
2022/01/30 12:23:29;;;;;;;24.17;4.75;;;;;;;8.91;54.32;101124.38;5012192;28;20029;-48
2022/01/30 12:26:04;;;;;;;23.88;5.00;;;;;;;8.97;53.81;101131.47;5018885;28;20084;-50
2022/01/30 12:28:51;;;;;;;20.65;5.63;;;;;;;9.00;53.49;101131.84;5015574;28;20423;-48
2022/01/30 12:31:34;;;;;;;21.42;3.72;;;;;;;9.07;53.12;101131.72;5018992;28;20025;-48
2022/01/30 12:34:08;;;;;;;31.92;4.90;;;;;;;9.11;52.80;101124.06;5017291;28;20084;-49